Ευχαριστούμε που συμβάλλετε στη διατήρηση της σελίδας μας.

Thank you for your donations, it really helps to maintain the page.

Meteo Stats And More

Στατιστικά Καιρού Και Άλλα






Δείκτης πυρκαγιάς (FWI)

Κάμερα Ρωμανού more information Romanos Cam


Ιστιοπλοικός Όμιλος Πάτρας more information Istioploikos Omilos Patras


Ραντάρ Κεραυνών more information blitzortung!


Ραντάρ Βροχής more information rain snow radar



Κοντινές Αναφορές METAR

  
LGRX - Araxos (civ/Afb), Greece
Απόσταση από τον σταθμό: ΔΝΔ 30km
Ενημερώθηκε: 17-08-2018 13:50
Κυρίως Αίθριος
Κυρίως Αίθριος  
 Άνεμος από Δ
Άνεμος: Δ 11 km/h
Θερμοκρασία:  29°C
Δείκτης θερμότητας:  29°C
Σημείο Δρόσου:  18°C
Υγρασία:  51%
Βαρόμετρο:  1012 hPa
Σύννεφα:  Κυρίως Αίθριος
Ορατότητα:  10 km
Λεπτομέρειες Σύννεφου:  Κυρίως Αίθριος 610 m
2018/08/17 10:50 LGRX 171050Z 27006KT 9999 FEW020 29/18 Q1012
LGAD - Andravida (civ/A, Greece
Απόσταση από τον σταθμό: ΝΔ 55km
Ενημερώθηκε: 17-08-2018 13:50
Κυρίως Αίθριος
Κυρίως Αίθριος  
 Άνεμος από ΒΔ
Άνεμος: ΒΔ 15 km/h
Θερμοκρασία:  30°C
Δείκτης θερμότητας:  31°C
Σημείο Δρόσου:  18°C
Υγρασία:  49%
Βαρόμετρο:  1012 hPa
Σύννεφα:  Κυρίως Αίθριος
Ορατότητα:  10 km
Λεπτομέρειες Σύννεφου:  Κυρίως Αίθριος 610 m
2018/08/17 10:50 LGAD 171050Z 32008KT 9999 FEW020 30/18 Q1012
LGZA - Zakinthos Airpor, Greece
Απόσταση από τον σταθμό: ΝΔ 95km
Ενημερώθηκε: 17-08-2018 13:50
Μερικώς Νεφελώδης
Μερικώς Νεφελώδης  
 Άνεμος από Ν
Άνεμος: Ν 7 km/h
Θερμοκρασία:  29°C
Δείκτης θερμότητας:  32°C
Σημείο Δρόσου:  22°C
Υγρασία:  66%
Βαρόμετρο:  1012 hPa
Σύννεφα:  Μερικώς Νεφελώδης
Ορατότητα:  10 km
Λεπτομέρειες Σύννεφου:  Μερικώς Νεφελώδης 610 m
2018/08/17 10:50 LGZA 171050Z 19004KT 9999 SCT020 29/22 Q1012
LGKF - Kefallinia, Greece
Απόσταση από τον σταθμό: Δ 110km
Ενημερώθηκε: 17-08-2018 13:50
Κυρίως Αίθριος
Κυρίως Αίθριος  
 Άνεμος από ΔΝΔ
Άνεμος: ΔΝΔ 7 km/h
Θερμοκρασία:  28°C
Δείκτης θερμότητας:  30°C
Σημείο Δρόσου:  22°C
Υγρασία:  70%
Βαρόμετρο:  1013 hPa
Σύννεφα:  Κυρίως Αίθριος
Ορατότητα:  10 km
Λεπτομέρειες Σύννεφου:  Κυρίως Αίθριος 549 m
2018/08/17 10:50 LGKF 171050Z 25004KT 9999 FEW018 28/22 Q1013
LGPZ - Preveza/Aktion, Greece
Απόσταση από τον σταθμό: ΒΔ 114km
Ενημερώθηκε: 17-08-2018 13:50
Κυρίως Αίθριος
Κυρίως Αίθριος  
 Άνεμος από Δ
Άνεμος: Δ 15 km/h
Θερμοκρασία:  30°C
Δείκτης θερμότητας:  31°C
Σημείο Δρόσου:  18°C
Υγρασία:  49%
Βαρόμετρο:  1013 hPa
Σύννεφα:  Κυρίως Αίθριος
Ορατότητα:  10 km
Λεπτομέρειες Σύννεφου:  Κυρίως Αίθριος 762 m
2018/08/17 10:50 LGPZ 171050Z 27008KT 9999 FEW025 30/18 Q1013
LGKL - Kalamata (hel-Af, Greece
Απόσταση από τον σταθμό: Ν 132km
Ενημερώθηκε: 17-08-2018 13:50
Μερικώς Νεφελώδης
Μερικώς Νεφελώδης  
 Άνεμος από Ν
Άνεμος: Ν 13 km/h
Θερμοκρασία:  29°C
Δείκτης θερμότητας:  29°C
Σημείο Δρόσου:  18°C
Υγρασία:  51%
Βαρόμετρο:  1011 hPa
Σύννεφα:  Μερικώς Νεφελώδης
Ορατότητα:  10 km
Λεπτομέρειες Σύννεφου:  Κυρίως Αίθριος 914 m
Μερικώς Νεφελώδης 2438 m
2018/08/17 10:50 LGKL 171050Z 17007KT 9999 FEW030TCU SCT080 29/18 Q1011
LGBL - Nea Anchialos, Greece
Απόσταση από τον σταθμό: ΒΑ 142km
Ενημερώθηκε: 17-08-2018 13:50
Κυρίως Αίθριος
Κυρίως Αίθριος  
 Άνεμος από ΔΒΔ
Άνεμος: ΔΒΔ 9 km/h
Θερμοκρασία:  33°C
Σημείο Δρόσου:  13°C
Υγρασία:  30%
Βαρόμετρο:  1011 hPa
Σύννεφα:  Κυρίως Αίθριος
Ορατότητα:  10 km
Λεπτομέρειες Σύννεφου:  Κυρίως Αίθριος 914 m
2018/08/17 10:50 LGBL 171050Z 29005KT 9999 FEW030 33/13 Q1011
LGEL - Elefsis (hel-Afb, Greece
Απόσταση από τον σταθμό: Α 158km
Ενημερώθηκε: 17-08-2018 13:50
Μερικώς Νεφελώδης
Μερικώς Νεφελώδης  
 Άνεμος από ΝΝΔ
Άνεμος: ΝΝΔ 13 km/h
Θερμοκρασία:  32°C
Σημείο Δρόσου:  16°C
Υγρασία:  38%
Βαρόμετρο:  1010 hPa
Σύννεφα:  Μερικώς Νεφελώδης
Ορατότητα:  10 km
Λεπτομέρειες Σύννεφου:  Μερικώς Νεφελώδης 762 m
2018/08/17 10:50 LGEL 171050Z 21007KT 9999 SCT025 32/16 Q1010
LGIO - Ioannina, Greece
Απόσταση από τον σταθμό: ΒΒΔ 181km
Ενημερώθηκε: 17-08-2018 13:50
Μερικώς Νεφελώδης
Μερικώς Νεφελώδης  
 Άνεμος από ποικίλλει
Άνεμος: ποικίλλει 0 km/h
Θερμοκρασία:  28°C
Δείκτης θερμότητας:  28°C
Σημείο Δρόσου:  14°C
Υγρασία:  42%
Βαρόμετρο:  1014 hPa
Σύννεφα:  Μερικώς Νεφελώδης
Ορατότητα:  10 km
Λεπτομέρειες Σύννεφου:  Κυρίως Αίθριος 762 m
Μερικώς Νεφελώδης 1829 m
2018/08/17 10:50 LGIO 171050Z /////KT 9999 FEW025 SCT060 28/14 Q1014
LGSK - Skiathos Island, Greece
Απόσταση από τον σταθμό: ΒΑ 185km
Ενημερώθηκε: 17-08-2018 13:50
Κυρίως Αίθριος
Κυρίως Αίθριος  
 Άνεμος από ΒΒΔ
Άνεμος: ΒΒΔ 11 km/h
Θερμοκρασία:  29°C
Δείκτης θερμότητας:  32°C
Σημείο Δρόσου:  22°C
Υγρασία:  66%
Βαρόμετρο:  1011 hPa
Σύννεφα:  Κυρίως Αίθριος
Ορατότητα:  10 km
Λεπτομέρειες Σύννεφου:  Κυρίως Αίθριος 610 m
2018/08/17 10:50 LGSK 171050Z 34006KT 9999 FEW020 29/22 Q1011
LGAV - Athens/Elef-Ven, Greece
Απόσταση από τον σταθμό: Α 195km
Ενημερώθηκε: 17-08-2018 13:50
Κυρίως Συννεφιά
Κυρίως Συννεφιά  
 Άνεμος από ΑΒΑ
Άνεμος: ΑΒΑ 22 km/h
Θερμοκρασία:  32°C
Σημείο Δρόσου:  15°C
Υγρασία:  36%
Βαρόμετρο:  1011 hPa
Σύννεφα:  Κυρίως Συννεφιά
Ορατότητα:  10 km
Λεπτομέρειες Σύννεφου:  Κυρίως Αίθριος 762 m
Κυρίως Συννεφιά 1829 m
2018/08/17 10:50 LGAV 171050Z 07012KT 9999 FEW025 BKN060 32/15 Q1011 NOSIG
LGKR - Ioannis Kapodist, Greece
Απόσταση από τον σταθμό: ΒΔ 221km
Ενημερώθηκε: 17-08-2018 13:50
Κυρίως Αίθριος
Κυρίως Αίθριος  
 Άνεμος από ΝΝΑ
Άνεμος: ΝΝΑ 11 km/h
Θερμοκρασία:  31°C
Δείκτης θερμότητας:  33°C
Σημείο Δρόσου:  20°C
Υγρασία:  52%
Βαρόμετρο:  1011 hPa
Σύννεφα:  Κυρίως Αίθριος
Ορατότητα:  10 km
Λεπτομέρειες Σύννεφου:  Κυρίως Αίθριος 610 m
2018/08/17 10:50 LGKR 171050Z 15006KT 9999 FEW020 31/20 Q1011 NOSIG

Script developed by  Saratoga-weather.org Προσαρμοσμένος για το πρότυπο του  Weerstation Leuven

Μπορείτε να βρείτε πληροφορίες καιρού μας και σε:


European Weather Network

WeatherCloud

Weather Underground

Hellas Meteo Network

AWEKAS

HAMweather, WeatherForYou, PWS Weather

    

MeteoPatras.Eu